Weather History for Clinton, IA

Change the Weather History Date:

Monday, August 13, 2012

  Actual Average Record
Temperature  
Mean Temperature 66 °F -  
Max Temperature 71 °F 83 °F 92 °F (1965)
Min Temperature 59 °F 61 °F 44 °F (2004)
Growing Degree Days 16 (Base 50)    
Moisture  
Dew Point 59 °F    
Average Humidity 85    
Maximum Humidity 94    
Minimum Humidity 60    
Precipitation  
Precipitation 0.34 in - - ()
Sea Level Pressure  
Sea Level Pressure 29.99 in    
Wind  
Wind Speed 7 mph (ENE)    
Max Wind Speed 15 mph    
Max Gust Speed -    
Visibility 9 miles    
Events      
Averages and records for this station are not official NWS values.
T = Trace of Precipitation, MM = Missing Value Source: NWS Daily Summary

Daily Weather History Graph

Daily Weather History Graph

Search for Another Location

Airport:

Trip Planner

Search our weather history database for the weather conditions in past years. The results will help you decide how hot, cold, wet, or windy it might be!

Date:

Astronomy

Aug. 13, 2012 Rise Set
Actual Time 6:07 AM CDT 8:03 PM CDT
Civil Twilight 5:37 AM CDT 8:33 PM CDT
Nautical Twilight 5:00 AM CDT 9:10 PM CDT
Astronomical Twilight 4:21 AM CDT 9:49 PM CDT
Moon 2:09 AM CDT (8/13) 5:16 PM CDT (8/13)
Length of Visible Light 14h 55m
Length of Day
13h 55m
Waning Crescent, 16% of the Moon is Illuminated
Aug 13
Waning Crescent
Aug 17
New
Aug 24
First Quarter
Aug 31
Full
Sep 8
Last Quarter

Hourly Weather History & Observations

Time (CDT) Temp. Dew Point Humidity Pressure Visibility Wind Dir Wind Speed Gust Speed Precip Events Conditions
12:15 AM 62.6 °F 59.0 °F 88% 30.00 in 10.0 mi SE 3.5 mph - N/A   Overcast
12:35 AM 62.6 °F 59.0 °F 88% 30.00 in 10.0 mi Calm Calm - N/A   Overcast
12:55 AM 62.6 °F 59.0 °F 88% 29.99 in 10.0 mi East 4.6 mph - N/A   Mostly Cloudy
1:15 AM 62.6 °F 59.0 °F 88% 29.98 in 7.0 mi East 3.5 mph - N/A   Overcast
1:35 AM 62.6 °F 59.0 °F 88% 29.98 in 7.0 mi ESE 6.9 mph - N/A   Overcast
1:55 AM 62.6 °F 59.0 °F 88% 29.97 in 10.0 mi East 6.9 mph - 0.01 in   Overcast
2:15 AM 60.8 °F 59.0 °F 94% 29.97 in 8.0 mi East 4.6 mph - 0.02 in   Overcast
2:35 AM 60.8 °F 59.0 °F 94% 29.97 in 7.0 mi East 5.8 mph - 0.03 in   Overcast
2:55 AM 60.8 °F 59.0 °F 94% 29.97 in 6.0 mi ENE 6.9 mph - 0.05 in   Overcast
3:15 AM 60.8 °F 59.0 °F 94% 29.97 in 4.0 mi ENE 8.1 mph - 0.03 in   Overcast
3:35 AM 60.8 °F 59.0 °F 94% 29.97 in 4.0 mi NE 9.2 mph - 0.06 in   Overcast
3:55 AM 60.8 °F 59.0 °F 94% 29.96 in 6.0 mi NE 10.4 mph - 0.06 in   Overcast
4:15 AM 60.8 °F 59.0 °F 94% 29.97 in 9.0 mi NE 10.4 mph - 0.01 in   Overcast
4:35 AM 60.8 °F 59.0 °F 94% 29.97 in 7.0 mi NE 11.5 mph - 0.01 in   Overcast
4:55 AM 60.8 °F 59.0 °F 94% 29.97 in 5.0 mi ENE 9.2 mph - 0.03 in   Overcast
5:15 AM 60.8 °F 59.0 °F 94% 29.97 in 5.0 mi ENE 9.2 mph - 0.05 in   Overcast
5:35 AM 60.8 °F 59.0 °F 94% 29.98 in 5.0 mi ENE 8.1 mph - 0.08 in   Overcast
5:55 AM 60.8 °F 59.0 °F 94% 29.98 in 4.0 mi ENE 9.2 mph - 0.11 in   Overcast
6:15 AM 60.8 °F 59.0 °F 94% 29.98 in 4.0 mi ENE 9.2 mph - 0.01 in   Overcast
6:35 AM 60.8 °F 59.0 °F 94% 29.98 in 5.0 mi ENE 8.1 mph - 0.05 in   Overcast
6:55 AM 60.8 °F 59.0 °F 94% 29.99 in 5.0 mi NE 8.1 mph - 0.07 in   Overcast
7:15 AM 60.8 °F 59.0 °F 94% 29.99 in 5.0 mi ENE 9.2 mph - 0.01 in   Overcast
7:35 AM 60.8 °F 59.0 °F 94% 29.99 in 10.0 mi NE 9.2 mph - 0.01 in   Overcast
7:55 AM 60.8 °F 59.0 °F 94% 29.99 in 10.0 mi ENE 8.1 mph - 0.01 in   Mostly Cloudy
8:15 AM 60.8 °F 59.0 °F 94% 29.99 in 10.0 mi ENE 9.2 mph - N/A   Mostly Cloudy
8:35 AM 62.6 °F 60.8 °F 94% 29.99 in 10.0 mi ENE 10.4 mph - N/A   Mostly Cloudy
8:55 AM 62.6 °F 60.8 °F 94% 29.99 in 10.0 mi NE 9.2 mph - N/A   Overcast
9:15 AM 62.6 °F 60.8 °F 94% 30.00 in 9.0 mi NE 10.4 mph - N/A   Overcast
9:35 AM 62.6 °F 60.8 °F 94% 30.00 in 10.0 mi NE 10.4 mph - N/A   Overcast
9:55 AM 62.6 °F 60.8 °F 94% 30.00 in 10.0 mi NE 11.5 mph - N/A   Overcast
10:15 AM 62.6 °F 60.8 °F 94% 30.00 in 10.0 mi NE 15.0 mph - N/A   Overcast
10:35 AM 62.6 °F 59.0 °F 88% 30.00 in 10.0 mi NE 13.8 mph - N/A   Overcast
10:55 AM 62.6 °F 59.0 °F 88% 30.00 in 10.0 mi NE 15.0 mph - N/A   Overcast
11:15 AM 64.4 °F 60.8 °F 88% 30.01 in 10.0 mi NE 12.7 mph - N/A   Overcast
11:35 AM 64.4 °F 59.0 °F 83% 30.01 in 10.0 mi NE 12.7 mph - N/A   Overcast
11:55 AM 62.6 °F 59.0 °F 88% 30.01 in 10.0 mi NNE 13.8 mph - N/A   Overcast
12:15 PM 64.4 °F 60.8 °F 88% 30.00 in 10.0 mi NE 12.7 mph - N/A   Overcast
12:35 PM 64.4 °F 60.8 °F 88% 30.01 in 10.0 mi NE 11.5 mph - N/A   Overcast
12:55 PM 66.2 °F 60.8 °F 83% 30.01 in 10.0 mi ENE 12.7 mph - N/A   Overcast
1:15 PM 66.2 °F 60.8 °F 83% 30.00 in 10.0 mi ENE 10.4 mph - N/A   Overcast
1:35 PM 66.2 °F 60.8 °F 83% 30.00 in 10.0 mi NE 11.5 mph - N/A   Mostly Cloudy
1:55 PM 68.0 °F 60.8 °F 78% 30.00 in 10.0 mi ENE 11.5 mph - N/A   Mostly Cloudy
2:15 PM 66.2 °F 59.0 °F 78% 30.00 in 10.0 mi NNE 12.7 mph - N/A   Overcast
2:35 PM 68.0 °F 59.0 °F 73% 30.00 in 10.0 mi NNE 11.5 mph - N/A   Overcast
2:55 PM 69.8 °F 59.0 °F 68% 30.00 in 10.0 mi NNE 8.1 mph - N/A   Overcast
3:15 PM 69.8 °F 59.0 °F 68% 29.99 in 10.0 mi NNE 10.4 mph - N/A   Scattered Clouds
3:35 PM 69.8 °F 59.0 °F 68% 30.00 in 10.0 mi ENE 8.1 mph - N/A   Partly Cloudy
3:55 PM 69.8 °F 59.0 °F 68% 29.99 in 10.0 mi NNE 8.1 mph - N/A   Mostly Cloudy
4:15 PM 69.8 °F 59.0 °F 68% 30.00 in 10.0 mi North 4.6 mph - N/A   Overcast
4:35 PM 69.8 °F 60.8 °F 73% 29.99 in 10.0 mi North 3.5 mph - N/A   Overcast
4:55 PM 71.6 °F 60.8 °F 69% 29.99 in 10.0 mi NNW 4.6 mph - N/A   Mostly Cloudy
5:15 PM 71.6 °F 60.8 °F 69% 29.99 in 10.0 mi NNE 5.8 mph - N/A   Mostly Cloudy
5:35 PM 71.6 °F 59.0 °F 64% 29.99 in 10.0 mi North 4.6 mph - N/A   Scattered Clouds
5:55 PM 71.6 °F 59.0 °F 64% 29.99 in 10.0 mi NE 3.5 mph - N/A   Partly Cloudy
6:15 PM 71.6 °F 57.2 °F 60% 29.99 in 10.0 mi Calm Calm - N/A   Scattered Clouds
6:35 PM 71.6 °F 59.0 °F 64% 29.98 in 10.0 mi ENE 3.5 mph - N/A   Partly Cloudy
6:55 PM 71.6 °F 59.0 °F 64% 29.98 in 10.0 mi Calm Calm - N/A   Clear
7:15 PM 71.6 °F 59.0 °F 64% 29.98 in 10.0 mi Calm Calm - N/A   Clear
7:35 PM 69.8 °F 60.8 °F 73% 29.98 in 10.0 mi Calm Calm - N/A   Clear
7:55 PM 66.2 °F 60.8 °F 83% 29.98 in 10.0 mi Calm Calm - N/A   Clear
8:15 PM 64.4 °F 60.8 °F 88% 29.99 in 10.0 mi Calm Calm - N/A   Clear
8:35 PM 64.4 °F 59.0 °F 83% 29.99 in 10.0 mi SW 3.5 mph - N/A   Clear
8:55 PM 62.6 °F 59.0 °F 88% 30.00 in 10.0 mi SSW 4.6 mph - N/A   Clear
9:15 PM 62.6 °F 59.0 °F 88% 30.00 in 10.0 mi SSW 3.5 mph - N/A   Clear
9:35 PM 60.8 °F 57.2 °F 88% 30.00 in 10.0 mi South 5.8 mph - N/A   Clear
9:55 PM 60.8 °F 57.2 °F 88% 30.00 in 10.0 mi SW 4.6 mph - N/A   Clear
10:15 PM 62.6 °F 57.2 °F 82% 30.01 in 10.0 mi South 4.6 mph - N/A   Clear
10:35 PM 60.8 °F 57.2 °F 88% 30.01 in 10.0 mi SSW 4.6 mph - N/A   Clear
10:55 PM 60.8 °F 57.2 °F 88% 30.01 in 10.0 mi WSW 6.9 mph - N/A   Clear
11:15 PM 60.8 °F 57.2 °F 88% 30.01 in 10.0 mi SW 3.5 mph - N/A   Clear
11:35 PM 60.8 °F 57.2 °F 88% 30.01 in 10.0 mi SW 4.6 mph - N/A   Clear
11:55 PM 59.0 °F 55.4 °F 88% 30.00 in 10.0 mi SSW 3.5 mph - N/A   Clear